Time;durP1;ratioP1;P1;durP2;ratioP2;P2;SDS_P1;SDS_P2;PMS_P1;PMS_P2;Temp;Humidity;BMP_temperature;BMP_pressure;BME280_temperature;BME280_humidity;BME280_pressure;Samples;Min_cycle;Max_cycle;Signal;HPM_P1;HPM_P2
2021/04/05 00:00:23;;;;;;;21.90;13.07;;;5.60;84.80;;;;;;5080780;28;20040;-73
2021/04/05 00:02:49;;;;;;;20.90;11.57;;;5.70;84.60;;;;;;5094456;28;20045;-72
2021/04/05 00:05:21;;;;;;;24.83;13.10;;;5.70;85.00;;;;;;5088354;28;20119;-72
2021/04/05 00:07:51;;;;;;;24.88;13.32;;;5.70;85.80;;;;;;5093910;28;20127;-72
2021/04/05 00:10:22;;;;;;;23.40;10.38;;;5.90;84.60;;;;;;5099437;28;20119;-72
2021/04/05 00:12:49;;;;;;;25.48;12.93;;;6.00;82.80;;;;;;5104926;28;20036;-72
2021/04/05 00:15:15;;;;;;;22.58;12.35;;;6.10;84.10;;;;;;5094639;28;20028;-73
2021/04/05 00:17:41;;;;;;;22.23;12.05;;;6.10;82.80;;;;;;5078382;28;20049;-72
2021/04/05 00:20:26;;;;;;;21.48;13.23;;;6.10;82.90;;;;;;5075082;28;20155;-72
2021/04/05 00:22:52;;;;;;;25.75;13.30;;;6.10;85.70;;;;;;5090645;28;20040;-72
2021/04/05 00:25:18;;;;;;;24.80;12.82;;;6.20;83.50;;;;;;5092587;28;20057;-73
2021/04/05 00:27:44;;;;;;;23.75;12.65;;;6.20;82.70;;;;;;5072174;28;20036;-72
2021/04/05 00:30:25;;;;;;;18.30;11.32;;;6.30;82.00;;;;;;5079847;28;20039;-73
2021/04/05 00:32:51;;;;;;;19.80;11.98;;;6.40;81.70;;;;;;5090120;28;20120;-72
2021/04/05 00:35:18;;;;;;;26.88;13.85;;;6.50;81.80;;;;;;5086798;28;20656;-73
2021/04/05 00:37:45;;;;;;;26.33;13.93;;;6.50;82.30;;;;;;5071284;28;20043;-73
2021/04/05 00:40:14;;;;;;;21.10;13.27;;;6.50;82.20;;;;;;5094492;28;20109;-72
2021/04/05 00:42:41;;;;;;;25.00;14.02;;;6.50;83.10;;;;;;5090856;28;20036;-72
2021/04/05 00:45:09;;;;;;;25.05;13.48;;;6.50;84.20;;;;;;5088225;28;20465;-73
2021/04/05 00:47:40;;;;;;;25.73;13.73;;;6.50;83.10;;;;;;5095999;28;20043;-73
2021/04/05 00:50:12;;;;;;;25.63;13.45;;;6.40;84.10;;;;;;5092090;28;20071;-73
2021/04/05 00:52:37;;;;;;;27.33;13.95;;;6.50;83.80;;;;;;5091116;28;20032;-73
2021/04/05 00:55:07;;;;;;;24.17;12.82;;;6.50;83.30;;;;;;5093337;28;20059;-72
2021/04/05 00:57:35;;;;;;;25.80;12.48;;;6.50;83.20;;;;;;5095770;28;20489;-73
2021/04/05 01:00:06;;;;;;;30.33;11.52;;;6.70;82.50;;;;;;5088407;28;20044;-73
2021/04/05 01:02:35;;;;;;;25.55;12.02;;;6.80;82.00;;;;;;5095190;28;20064;-72
2021/04/05 01:05:00;;;;;;;35.70;13.82;;;6.90;81.70;;;;;;5092224;28;20047;-73
2021/04/05 01:07:27;;;;;;;28.48;13.48;;;7.00;83.40;;;;;;5094432;28;20043;-72
2021/04/05 01:09:52;;;;;;;22.67;10.88;;;7.10;83.30;;;;;;5094155;28;20476;-72
2021/04/05 01:12:18;;;;;;;27.88;12.05;;;7.20;82.00;;;;;;5100325;28;20052;-72
2021/04/05 01:14:43;;;;;;;25.75;11.63;;;7.40;81.10;;;;;;5091713;28;20115;-73
2021/04/05 01:17:09;;;;;;;26.25;11.98;;;7.40;80.90;;;;;;5100169;28;20067;-72
2021/04/05 01:19:35;;;;;;;26.25;12.85;;;7.50;78.60;;;;;;5097344;28;20063;-73
2021/04/05 01:22:01;;;;;;;28.70;12.68;;;7.60;80.30;;;;;;5085515;28;20037;-72
2021/04/05 01:24:27;;;;;;;28.70;12.05;;;7.60;80.90;;;;;;5086313;28;20040;-74
2021/04/05 01:26:52;;;;;;;30.88;12.40;;;7.80;78.20;;;;;;5097741;28;20032;-73
2021/04/05 01:29:18;;;;;;;28.33;12.63;;;7.70;80.70;;;;;;5089432;28;20131;-73
2021/04/05 01:31:44;;;;;;;29.60;12.85;;;7.70;79.30;;;;;;5083065;28;20052;-72
2021/04/05 01:34:09;;;;;;;28.90;11.82;;;7.80;79.20;;;;;;5093008;28;20051;-73
2021/04/05 01:36:35;;;;;;;29.73;13.57;;;7.80;78.20;;;;;;5080868;28;20037;-73
2021/04/05 01:39:01;;;;;;;27.75;12.00;;;7.80;80.90;;;;;;5086283;28;20031;-73
2021/04/05 01:41:32;;;;;;;21.48;10.52;;;7.80;77.50;;;;;;5092019;28;20700;-73
2021/04/05 01:43:59;;;;;;;28.50;10.65;;;8.00;78.50;;;;;;5083894;28;20040;-72
2021/04/05 01:46:29;;;;;;;26.73;11.32;;;8.00;77.00;;;;;;5099853;28;20066;-73
2021/04/05 01:48:59;;;;;;;18.88;9.25;;;8.10;76.90;;;;;;5084920;28;20067;-72
2021/04/05 01:51:25;;;;;;;17.10;9.48;;;8.00;78.70;;;;;;5089308;28;20039;-75
2021/04/05 01:53:52;;;;;;;19.67;8.82;;;8.10;76.40;;;;;;5099334;28;20032;-73
2021/04/05 01:56:19;;;;;;;19.45;10.23;;;8.20;76.20;;;;;;5104008;28;20488;-73
2021/04/05 01:58:47;;;;;;;30.02;11.63;;;8.30;74.20;;;;;;5090122;28;20470;-72
2021/04/05 02:01:18;;;;;;;24.05;10.40;;;8.30;75.00;;;;;;5099904;27;20040;-73
2021/04/05 02:03:45;;;;;;;23.08;11.52;;;8.40;74.70;;;;;;5098848;28;20039;-73
2021/04/05 02:06:24;;;;;;;23.90;9.82;;;8.30;78.00;;;;;;5087888;28;20042;-73
2021/04/05 02:08:50;;;;;;;25.27;10.45;;;8.50;74.20;;;;;;5090974;28;20059;-72
2021/04/05 02:11:23;;;;;;;22.80;8.45;;;8.50;74.40;;;;;;5092505;28;20032;-72
2021/04/05 02:13:52;;;;;;;20.55;8.18;;;8.40;75.70;;;;;;5094211;28;20482;-72
2021/04/05 02:16:19;;;;;;;16.45;6.55;;;8.40;74.10;;;;;;5087492;28;20036;-72
2021/04/05 02:18:46;;;;;;;21.73;9.32;;;8.50;73.10;;;;;;5095121;28;20130;-73
2021/04/05 02:21:18;;;;;;;20.67;8.65;;;8.30;75.20;;;;;;5094794;28;20028;-73
2021/04/05 02:23:46;;;;;;;25.30;10.82;;;8.30;75.00;;;;;;5092735;28;20048;-72
2021/04/05 02:26:17;;;;;;;20.85;9.15;;;8.20;76.60;;;;;;5098759;28;20038;-73
2021/04/05 02:28:45;;;;;;;21.35;9.10;;;8.30;74.40;;;;;;5096291;28;20066;-73
2021/04/05 02:31:13;;;;;;;19.88;7.88;;;8.30;75.70;;;;;;5084793;28;20067;-73
2021/04/05 02:33:40;;;;;;;16.55;6.60;;;8.40;74.30;;;;;;5077224;28;20390;-73
2021/04/05 02:36:12;;;;;;;18.02;7.93;;;8.40;73.80;;;;;;5085508;28;20063;-72
2021/04/05 02:38:45;;;;;;;17.13;7.03;;;8.40;75.70;;;;;;5083396;28;20085;-73
2021/04/05 02:41:12;;;;;;;23.35;10.45;;;8.40;73.80;;;;;;5092163;28;20113;-73
2021/04/05 02:43:38;;;;;;;16.92;7.13;;;8.40;74.90;;;;;;5092728;28;20085;-73
2021/04/05 02:46:06;;;;;;;20.40;8.38;;;8.30;75.00;;;;;;5081494;28;20052;-73
2021/04/05 02:48:35;;;;;;;13.23;6.70;;;8.40;74.70;;;;;;5079722;28;20037;-72
2021/04/05 02:51:06;;;;;;;22.35;8.38;;;8.40;75.10;;;;;;5086243;28;20067;-73
2021/04/05 02:53:33;;;;;;;16.52;7.38;;;8.40;75.50;;;;;;5083529;28;20055;-73
2021/04/05 02:56:04;;;;;;;15.07;6.68;;;8.50;75.60;;;;;;5091288;22;20049;-67
2021/04/05 02:58:38;;;;;;;21.30;7.85;;;8.40;75.50;;;;;;5070373;28;20033;-67
2021/04/05 03:01:05;;;;;;;17.08;6.45;;;8.40;76.40;;;;;;5071510;28;20040;-67
2021/04/05 03:03:32;;;;;;;21.60;8.02;;;8.40;75.00;;;;;;5070194;28;20052;-67
2021/04/05 03:05:59;;;;;;;17.05;7.55;;;8.40;77.30;;;;;;5077463;28;20431;-67
2021/04/05 03:08:26;;;;;;;18.95;7.88;;;8.30;75.60;;;;;;5073367;28;20128;-67
2021/04/05 03:10:52;;;;;;;19.77;8.57;;;8.30;78.10;;;;;;5069539;28;20036;-67
2021/04/05 03:13:18;;;;;;;17.50;7.28;;;8.30;77.30;;;;;;5073690;28;20033;-67
2021/04/05 03:15:44;;;;;;;21.80;8.70;;;8.10;78.80;;;;;;5068883;28;20094;-67
2021/04/05 03:18:10;;;;;;;18.02;7.45;;;8.00;80.80;;;;;;5070183;28;20037;-67
2021/04/05 03:20:37;;;;;;;16.80;7.18;;;8.10;78.80;;;;;;5080878;28;20036;-68
2021/04/05 03:23:04;;;;;;;25.30;8.43;;;8.10;78.40;;;;;;5070656;28;20062;-67
2021/04/05 03:25:30;;;;;;;20.45;7.15;;;8.10;80.50;;;;;;5071352;28;20105;-67
2021/04/05 03:27:56;;;;;;;24.33;8.13;;;8.00;79.60;;;;;;5051516;28;20123;-67
2021/04/05 03:30:31;;;;;;;17.88;6.85;;;7.90;81.60;;;;;;5065472;28;20507;-67
2021/04/05 03:33:25;;;;;;;13.25;6.90;;;7.90;79.70;;;;;;5067985;28;20525;-67
2021/04/05 03:35:55;;;;;;;23.48;7.82;;;8.00;78.60;;;;;;5070627;28;20033;-67
2021/04/05 03:38:21;;;;;;;18.15;7.28;;;8.00;82.00;;;;;;5060280;28;20033;-68
2021/04/05 03:40:47;;;;;;;21.30;8.35;;;8.00;76.40;;;;;;5078077;28;20044;-68
2021/04/05 03:43:25;;;;;;;20.63;8.20;;;7.90;80.10;;;;;;5071359;28;20040;-67
2021/04/05 03:45:57;;;;;;;19.92;6.47;;;7.80;82.60;;;;;;5069297;28;20093;-67
2021/04/05 03:48:57;;;;;;;7.95;3.47;;;7.70;83.00;;;;;;5075031;28;20111;-68
2021/04/05 03:51:31;;;;;;;13.63;4.00;;;7.30;82.40;;;;;;5068739;28;20059;-67
2021/04/05 03:54:12;;;;;;;11.05;2.72;;;7.00;85.00;;;;;;5073867;28;20040;-67
2021/04/05 03:56:40;;;;;;;11.48;3.85;;;7.00;82.40;;;;;;5071051;28;20057;-67
2021/04/05 03:59:10;;;;;;;11.90;3.00;;;7.00;83.00;;;;;;5069879;28;20174;-67
2021/04/05 04:01:46;;;;;;;8.15;2.88;;;6.70;86.30;;;;;;5069880;28;20412;-68
2021/04/05 04:04:27;;;;;;;13.10;2.95;;;6.60;84.70;;;;;;5069105;28;20043;-67
2021/04/05 04:07:06;;;;;;;9.93;2.25;;;6.70;85.00;;;;;;5070359;28;20478;-67
2021/04/05 04:09:33;;;;;;;9.35;2.35;;;6.80;82.60;;;;;;5070302;28;20047;-68
2021/04/05 04:12:00;;;;;;;10.07;2.15;;;6.60;84.60;;;;;;5066624;28;20085;-67
2021/04/05 04:14:26;;;;;;;6.32;1.80;;;6.50;84.30;;;;;;5079146;28;20627;-68
2021/04/05 04:16:53;;;;;;;7.40;1.75;;;6.40;85.40;;;;;;5060477;28;20039;-68
2021/04/05 04:19:20;;;;;;;7.85;1.90;;;6.30;85.30;;;;;;5083590;28;20068;-67
2021/04/05 04:21:48;;;;;;;5.35;1.60;;;6.30;85.10;;;;;;5085193;28;20040;-68
2021/04/05 04:24:15;;;;;;;6.80;1.55;;;6.30;85.10;;;;;;5074134;28;20066;-67
2021/04/05 04:26:41;;;;;;;6.75;1.60;;;5.90;87.40;;;;;;5074857;28;20040;-67
2021/04/05 04:29:19;;;;;;;7.00;1.52;;;6.00;87.50;;;;;;5073643;28;20425;-67
2021/04/05 04:31:45;;;;;;;4.13;1.38;;;5.90;88.60;;;;;;5072005;28;20094;-67
2021/04/05 04:34:19;;;;;;;7.38;1.50;;;5.90;88.60;;;;;;5074021;28;20044;-67
2021/04/05 04:36:45;;;;;;;6.00;1.00;;;5.70;90.10;;;;;;5073240;28;20046;-68
2021/04/05 04:39:12;;;;;;;4.10;1.27;;;5.60;87.80;;;;;;5078018;28;20039;-67
2021/04/05 04:41:41;;;;;;;3.13;1.00;;;5.60;86.50;;;;;;5075305;28;20063;-67
2021/04/05 04:44:10;;;;;;;2.17;0.93;;;5.40;87.10;;;;;;5081569;28;20036;-68
2021/04/05 04:46:36;;;;;;;0.88;0.63;;;5.20;88.20;;;;;;5075594;28;20032;-68
2021/04/05 04:49:08;;;;;;;2.63;0.80;;;5.10;87.70;;;;;;5072643;28;20037;-67
2021/04/05 04:51:35;;;;;;;2.83;0.80;;;4.80;88.70;;;;;;5085071;28;20079;-67
2021/04/05 04:54:02;;;;;;;3.72;0.90;;;4.90;88.90;;;;;;5080060;28;20077;-67
2021/04/05 04:56:29;;;;;;;3.08;0.80;;;4.90;89.70;;;;;;5083907;28;20084;-67
2021/04/05 04:59:04;;;;;;;4.03;0.93;;;4.70;88.90;;;;;;5075633;28;20067;-67
2021/04/05 05:01:31;;;;;;;3.55;0.98;;;4.70;90.20;;;;;;5068433;28;20048;-67
2021/04/05 05:04:04;;;;;;;4.93;1.00;;;4.60;89.90;;;;;;5072989;28;20052;-67
2021/04/05 05:06:32;;;;;;;4.18;1.10;;;4.80;90.00;;;;;;5075781;28;20048;-68
2021/04/05 05:08:59;;;;;;;4.80;0.85;;;4.70;90.10;;;;;;5073060;28;20054;-67
2021/04/05 05:11:26;;;;;;;3.88;1.05;;;4.70;90.40;;;;;;5072707;28;20123;-67
2021/04/05 05:13:52;;;;;;;6.70;1.20;;;4.60;90.50;;;;;;5076482;28;20116;-67
2021/04/05 05:16:18;;;;;;;4.15;1.20;;;4.70;90.30;;;;;;5068553;28;20116;-68
2021/04/05 05:18:45;;;;;;;7.20;1.27;;;4.70;90.70;;;;;;5069214;28;20032;-67
2021/04/05 05:21:25;;;;;;;1.73;0.70;;;4.50;90.80;;;;;;5071605;28;20035;-67
2021/04/05 05:24:00;;;;;;;1.90;0.85;;;4.50;91.10;;;;;;5074916;28;20044;-68
2021/04/05 05:26:27;;;;;;;2.58;1.33;;;4.40;90.70;;;;;;5065374;28;20025;-67
2021/04/05 05:28:56;;;;;;;3.17;0.85;;;4.60;90.30;;;;;;5059474;28;20055;-68
2021/04/05 05:31:22;;;;;;;2.83;0.95;;;4.60;90.30;;;;;;5057702;28;20037;-68
2021/04/05 05:33:48;;;;;;;3.97;0.77;;;4.30;90.20;;;;;;5069395;28;20559;-68
2021/04/05 05:36:17;;;;;;;5.85;1.00;;;4.10;90.50;;;;;;5066340;28;20048;-67
2021/04/05 05:38:44;;;;;;;2.42;0.80;;;4.00;90.70;;;;;;5071503;28;20086;-67
2021/04/05 05:41:41;;;;;;;6.38;1.27;;;4.10;90.80;;;;;;5070230;28;20222;-68
2021/04/05 05:44:43;;;;;;;4.15;0.90;;;3.90;91.30;;;;;;5068991;28;20044;-67
2021/04/05 05:47:09;;;;;;;6.20;1.30;;;3.80;91.40;;;;;;5067527;28;20048;-67
2021/04/05 05:49:43;;;;;;;7.03;1.10;;;3.90;91.30;;;;;;5071579;28;20401;-67
2021/04/05 05:52:31;;;;;;;2.85;1.05;;;4.00;91.60;;;;;;5071967;28;20078;-67
2021/04/05 05:55:13;;;;;;;3.35;1.23;;;4.10;91.10;;;;;;5066475;28;20533;-68
2021/04/05 05:57:45;;;;;;;6.65;1.17;;;4.10;90.30;;;;;;5072601;28;20075;-67
2021/04/05 06:00:21;;;;;;;2.67;0.70;;;4.20;88.90;;;;;;5071046;28;20461;-67
2021/04/05 06:02:59;;;;;;;5.00;1.00;;;4.00;90.10;;;;;;5070820;28;20513;-67
2021/04/05 06:05:36;;;;;;;6.18;1.10;;;4.00;88.00;;;;;;5070796;28;20378;-68
2021/04/05 06:08:37;;;;;;;7.25;1.20;;;3.90;88.40;;;;;;5070942;28;20032;-68
2021/04/05 06:11:17;;;;;;;5.65;1.33;;;3.80;89.30;;;;;;5070875;28;20040;-67
2021/04/05 06:14:06;;;;;;;8.10;1.27;;;3.70;89.20;;;;;;5068735;28;20045;-67
2021/04/05 06:17:09;;;;;;;7.72;1.27;;;3.80;90.00;;;;;;5071075;28;20040;-67
2021/04/05 06:19:44;;;;;;;;;;;3.80;88.50;;;;;;5064043;28;20036;-68
2021/04/05 06:22:37;;;;;;;9.55;1.10;;;3.80;90.90;;;;;;5071358;28;19920;-68
2021/04/05 06:25:41;;;;;;;7.32;1.17;;;3.90;90.20;;;;;;5065481;28;20127;-68
2021/04/05 06:28:14;;;;;;;7.15;1.50;;;3.90;88.70;;;;;;5069473;28;20037;-68
2021/04/05 06:31:17;;;;;;;12.25;2.13;;;3.90;87.90;;;;;;5054328;28;20547;-68
2021/04/05 06:33:52;;;;;;;8.68;1.52;;;3.90;90.00;;;;;;5072013;28;20093;-67
2021/04/05 06:36:52;;;;;;;11.73;1.83;;;4.00;90.50;;;;;;5066004;28;20044;-68
2021/04/05 06:39:21;;;;;;;8.25;1.40;;;4.10;88.50;;;;;;5069588;28;20037;-68
2021/04/05 06:42:08;;;;;;;5.97;1.42;;;4.10;88.80;;;;;;5071619;28;20040;-68
2021/04/05 06:45:09;;;;;;;10.13;2.35;;;4.00;84.00;;;;;;5071151;28;20408;-67
2021/04/05 06:47:44;;;;;;;8.65;1.10;;;4.10;83.90;;;;;;5026285;28;20635;-68
2021/04/05 06:50:24;;;;;;;6.28;1.40;;;4.50;87.80;;;;;;5069155;28;20040;-68
2021/04/05 06:52:56;;;;;;;7.53;1.63;;;4.50;84.30;;;;;;5067739;28;20063;-68
2021/04/05 06:55:55;;;;;;;11.45;1.77;;;4.40;82.70;;;;;;5066233;28;20063;-68
2021/04/05 06:58:36;;;;;;;10.30;2.05;;;4.30;77.80;;;;;;5070114;28;20123;-68
2021/04/05 07:01:42;;;;;;;11.60;1.98;;;4.40;78.00;;;;;;5070458;28;20076;-68
2021/04/05 07:04:37;;;;;;;6.22;1.60;;;4.60;83.80;;;;;;5071649;28;20458;-68
2021/04/05 07:07:40;;;;;;;12.98;2.50;;;4.70;78.60;;;;;;5070254;28;20047;-68
2021/04/05 07:10:12;;;;;;;5.28;1.90;;;4.70;80.60;;;;;;5070389;28;20462;-68
2021/04/05 07:13:07;;;;;;;4.30;1.13;;;4.60;81.50;;;;;;5070333;28;20036;-68
2021/04/05 07:15:58;;;;;;;9.85;2.10;;;5.00;82.30;;;;;;5078223;28;20051;-67
2021/04/05 07:18:50;;;;;;;8.85;1.67;;;4.60;79.80;;;;;;5070817;28;20032;-68
2021/04/05 07:21:23;;;;;;;7.65;1.70;;;4.30;82.00;;;;;;5074186;28;20036;-72
2021/04/05 07:24:13;;;;;;;8.07;1.67;;;4.30;81.70;;;;;;5068561;28;20755;-73
2021/04/05 07:26:57;;;;;;;6.20;1.75;;;4.30;85.70;;;;;;5071836;28;20032;-73
2021/04/05 07:29:43;;;;;;;5.25;1.30;;;4.50;86.50;;;;;;5070176;28;20086;-73
2021/04/05 07:32:31;;;;;;;6.40;1.98;;;4.70;80.00;;;;;;5058380;28;20036;-72
2021/04/05 07:35:01;;;;;;;6.57;1.10;;;4.90;81.10;;;;;;5063734;28;20117;-72
2021/04/05 07:37:46;;;;;;;8.50;1.73;;;4.90;78.20;;;;;;5069182;28;20202;-72
2021/04/05 07:40:26;;;;;;;9.70;1.67;;;5.00;75.10;;;;;;5070744;28;20041;-72
2021/04/05 07:43:01;;;;;;;5.60;1.23;;;5.10;76.50;;;;;;5070689;28;20530;-72
2021/04/05 07:45:32;;;;;;;6.38;1.60;;;5.40;78.90;;;;;;5069664;28;20063;-72
2021/04/05 07:48:19;;;;;;;6.90;1.45;;;5.50;77.40;;;;;;5069308;28;20424;-72
2021/04/05 07:51:03;;;;;;;2.67;0.70;;;5.30;74.60;;;;;;5071932;28;20033;-71
2021/04/05 07:53:31;;;;;;;2.05;0.70;;;4.60;83.10;;;;;;5069357;28;20111;-71
2021/04/05 07:56:02;;;;;;;5.07;1.38;;;4.00;83.20;;;;;;5068361;28;20123;-71
2021/04/05 07:58:50;;;;;;;2.80;0.65;;;3.50;87.10;;;;;;5075059;28;20044;-72
2021/04/05 08:01:41;;;;;;;2.53;0.68;;;3.10;89.50;;;;;;5070850;28;20037;-73
2021/04/05 08:04:17;;;;;;;2.63;0.80;;;3.00;88.50;;;;;;5070458;28;20100;-73
2021/04/05 08:07:05;;;;;;;5.22;1.00;;;3.10;91.20;;;;;;5070362;28;20036;-73
2021/04/05 08:09:50;;;;;;;6.82;1.50;;;3.00;88.10;;;;;;5063253;28;20067;-72
2021/04/05 08:12:31;;;;;;;3.35;1.27;;;2.60;86.10;;;;;;5069916;28;20506;-72
2021/04/05 08:15:09;;;;;;;9.88;1.42;;;2.90;88.40;;;;;;5066217;28;20037;-72
2021/04/05 08:17:58;;;;;;;6.47;1.50;;;3.00;87.90;;;;;;5070686;28;20044;-72
2021/04/05 08:20:40;;;;;;;8.30;1.60;;;2.80;86.00;;;;;;5066286;28;20033;-72
2021/04/05 08:23:26;;;;;;;12.48;1.92;;;3.00;89.60;;;;;;5068597;28;20039;-72
2021/04/05 08:25:59;;;;;;;14.20;2.33;;;3.00;86.20;;;;;;5063918;28;20033;-72
2021/04/05 08:28:31;;;;;;;13.93;2.47;;;2.70;81.40;;;;;;5070754;28;20086;-72
2021/04/05 08:31:30;;;;;;;4.18;1.52;;;3.00;88.80;;;;;;5068347;28;20127;-72
2021/04/05 08:34:19;;;;;;;8.45;2.25;;;3.00;84.40;;;;;;5068358;28;20481;-73
2021/04/05 08:36:50;;;;;;;11.65;2.97;;;2.90;84.10;;;;;;5063292;28;20044;-73
2021/04/05 08:39:28;;;;;;;12.18;2.40;;;3.10;91.60;;;;;;5067870;28;20124;-73
2021/04/05 08:42:23;;;;;;;12.75;2.55;;;3.10;87.20;;;;;;5068499;28;20131;-73
2021/04/05 08:45:01;;;;;;;16.20;2.83;;;3.20;84.30;;;;;;5064165;28;20037;-73
2021/04/05 08:47:31;;;;;;;9.77;2.20;;;3.20;86.80;;;;;;5063643;28;20529;-73
2021/04/05 08:50:09;;;;;;;11.07;2.20;;;3.20;85.80;;;;;;5065891;28;20032;-72
2021/04/05 08:52:39;;;;;;;10.82;2.10;;;3.40;86.00;;;;;;5065142;28;20068;-73
2021/04/05 08:55:07;;;;;;;9.77;1.70;;;3.70;84.00;;;;;;5066847;28;20048;-73
2021/04/05 08:57:39;;;;;;;10.50;2.65;;;4.10;84.60;;;;;;5067350;28;20644;-74
2021/04/05 09:00:08;;;;;;;11.52;3.38;;;4.50;85.30;;;;;;5066655;28;20071;-73
2021/04/05 09:02:39;;;;;;;10.05;2.70;;;4.10;74.80;;;;;;5061665;28;20045;-73
2021/04/05 09:05:13;;;;;;;17.60;2.60;;;4.30;78.60;;;;;;5069557;28;20119;-73
2021/04/05 09:07:58;;;;;;;10.93;2.10;;;3.40;78.20;;;;;;5072056;28;20377;-74
2021/04/05 09:10:41;;;;;;;7.55;1.50;;;3.20;86.00;;;;;;5069968;28;20041;-73
2021/04/05 09:13:11;;;;;;;6.93;1.60;;;3.10;80.80;;;;;;5069089;28;20045;-74
2021/04/05 09:16:21;;;;;;;12.10;2.47;;;3.00;87.20;;;;;;5072465;28;20041;-74
2021/04/05 09:19:14;;;;;;;8.32;1.42;;;3.10;83.90;;;;;;5008382;28;20034;-74
2021/04/05 09:21:46;;;;;;;12.38;1.80;;;3.20;81.20;;;;;;5064708;28;20029;-74
2021/04/05 09:24:20;;;;;;;7.57;1.40;;;3.60;80.60;;;;;;5071108;28;20040;-74
2021/04/05 09:27:00;;;;;;;12.15;2.38;;;3.60;77.60;;;;;;5056915;28;20040;-74
2021/04/05 09:29:59;;;;;;;11.18;2.25;;;3.40;70.40;;;;;;5076234;28;20040;-74
2021/04/05 09:32:52;;;;;;;10.95;2.38;;;3.60;82.60;;;;;;5043135;28;20067;-74
2021/04/05 09:35:24;;;;;;;8.88;1.48;;;3.80;76.20;;;;;;5079582;28;20042;-74
2021/04/05 09:38:04;;;;;;;7.15;1.33;;;4.10;78.00;;;;;;5063927;28;20455;-74
2021/04/05 09:41:07;;;;;;;9.60;1.92;;;4.20;74.00;;;;;;5067302;28;20383;-74
2021/04/05 09:43:49;;;;;;;;;;;4.80;74.80;;;;;;5071405;28;20135;-75
2021/04/05 09:46:29;;;;;;;8.07;1.35;;;5.50;78.40;;;;;;5063342;28;19959;-74
2021/04/05 09:49:21;;;;;;;9.90;2.10;;;6.00;78.90;;;;;;5057296;28;20052;-74
2021/04/05 09:52:03;;;;;;;7.00;1.50;;;5.80;65.60;;;;;;5036533;28;20115;-74
2021/04/05 09:54:37;;;;;;;6.65;1.50;;;5.60;58.30;;;;;;5067602;28;20049;-74
2021/04/05 09:57:14;;;;;;;1.92;0.65;;;5.30;50.20;;;;;;5069791;28;20037;-74
2021/04/05 09:59:44;;;;;;;4.88;1.20;;;5.30;56.40;;;;;;5065378;28;20055;-74
2021/04/05 10:02:14;;;;;;;3.63;1.02;;;5.30;57.00;;;;;;5070980;28;20040;-74
2021/04/05 10:04:43;;;;;;;4.78;0.88;;;5.50;58.20;;;;;;5059551;28;20045;-74
2021/04/05 10:07:11;;;;;;;3.55;0.82;;;5.70;59.70;;;;;;5065979;28;20482;-74
2021/04/05 10:09:37;;;;;;;3.10;0.93;;;5.90;69.20;;;;;;5069972;28;20494;-74
2021/04/05 10:12:06;;;;;;;6.30;0.90;;;5.80;62.80;;;;;;5068684;28;20539;-75
2021/04/05 10:14:39;;;;;;;7.13;1.50;;;6.20;55.70;;;;;;5063341;28;20120;-74
2021/04/05 10:17:05;;;;;;;3.00;1.00;;;6.40;58.00;;;;;;5070077;28;20035;-74
2021/04/05 10:19:36;;;;;;;3.20;1.00;;;6.50;66.60;;;;;;5069844;28;20094;-74
2021/04/05 10:22:04;;;;;;;7.55;1.20;;;6.10;62.80;;;;;;5071114;28;20041;-74
2021/04/05 10:24:33;;;;;;;6.63;1.15;;;5.90;69.90;;;;;;5070697;28;20040;-74
2021/04/05 10:27:02;;;;;;;4.25;1.08;;;5.70;67.90;;;;;;5069728;28;20135;-74
2021/04/05 10:29:30;;;;;;;4.03;0.60;;;6.10;65.70;;;;;;5069623;28;20064;-74
2021/04/05 10:32:00;;;;;;;4.28;0.77;;;5.70;64.80;;;;;;5069950;28;20078;-74
2021/04/05 10:34:27;;;;;;;2.22;0.85;;;5.60;60.40;;;;;;5070305;28;20128;-74
2021/04/05 10:37:17;;;;;;;3.50;1.00;;;5.50;61.70;;;;;;5069218;28;20047;-75
2021/04/05 10:39:48;;;;;;;4.63;0.93;;;6.00;56.80;;;;;;5067412;28;20043;-74
2021/04/05 10:42:38;;;;;;;3.45;1.00;;;6.30;58.10;;;;;;5069689;28;20466;-74
2021/04/05 10:45:09;;;;;;;2.72;0.70;;;6.30;51.90;;;;;;5060998;28;20048;-74
2021/04/05 10:47:46;;;;;;;3.50;0.70;;;6.60;47.20;;;;;;5068434;28;20568;-74
2021/04/05 10:50:12;;;;;;;5.20;0.85;;;7.10;57.50;;;;;;5069905;28;20051;-74
2021/04/05 10:52:43;;;;;;;3.22;0.52;;;6.80;49.00;;;;;;5068774;28;20028;-74
2021/04/05 10:55:23;;;;;;;1.67;0.70;;;6.70;53.60;;;;;;5070551;28;20062;-74
2021/04/05 10:57:54;;;;;;;0.70;0.45;;;7.10;64.80;;;;;;5070175;28;20040;-74
2021/04/05 11:00:25;;;;;;;0.60;0.38;;;6.70;56.80;;;;;;5069604;28;20029;-73
2021/04/05 11:03:19;;;;;;;1.15;0.50;;;6.80;61.10;;;;;;5069110;28;20035;-74
2021/04/05 11:05:49;;;;;;;2.25;0.73;;;6.70;62.90;;;;;;5058030;28;20044;-74
2021/04/05 11:08:20;;;;;;;2.10;0.80;;;7.00;56.70;;;;;;5066755;28;20040;-74
2021/04/05 11:10:46;;;;;;;3.25;1.25;;;6.90;54.70;;;;;;5065392;28;20040;-74
2021/04/05 11:13:16;;;;;;;3.28;0.98;;;6.40;53.30;;;;;;5071448;28;20107;-74
2021/04/05 11:15:46;;;;;;;3.95;0.85;;;6.40;55.30;;;;;;5069021;28;21821;-73
2021/04/05 11:18:15;;;;;;;3.88;0.80;;;6.90;56.90;;;;;;5068467;28;20040;-73
2021/04/05 11:20:42;;;;;;;8.27;2.08;;;7.40;55.60;;;;;;5069579;28;20036;-74
2021/04/05 11:23:11;;;;;;;3.90;1.60;;;7.40;62.20;;;;;;5069129;28;20062;-73
2021/04/05 11:25:43;;;;;;;5.97;1.38;;;6.60;56.30;;;;;;5061632;28;20456;-73
2021/04/05 11:28:25;;;;;;;5.47;1.30;;;5.90;59.50;;;;;;5070478;28;20454;-74
2021/04/05 11:31:02;;;;;;;6.10;1.50;;;5.40;61.50;;;;;;5069946;28;20120;-74
2021/04/05 11:33:31;;;;;;;6.03;1.05;;;5.30;65.40;;;;;;5066667;28;20052;-74
2021/04/05 11:35:59;;;;;;;3.60;1.30;;;5.40;65.90;;;;;;5069672;28;20037;-73
2021/04/05 11:38:25;;;;;;;2.72;1.02;;;5.60;58.70;;;;;;5069385;28;20040;-73
2021/04/05 11:41:00;;;;;;;8.27;1.50;;;5.80;61.40;;;;;;5067349;28;20546;-74
2021/04/05 11:43:30;;;;;;;4.13;1.02;;;6.20;65.20;;;;;;5085087;28;20029;-74
2021/04/05 11:46:03;;;;;;;4.03;1.48;;;6.50;64.60;;;;;;5064710;28;20509;-74
2021/04/05 11:48:29;;;;;;;6.55;1.20;;;6.70;59.30;;;;;;5067439;28;20112;-74
2021/04/05 11:50:56;;;;;;;6.72;1.25;;;6.80;58.90;;;;;;5070650;28;20461;-74
2021/04/05 11:53:52;;;;;;;3.20;0.98;;;7.10;66.60;;;;;;5070805;28;20036;-74
2021/04/05 11:56:30;;;;;;;8.23;1.67;;;7.20;60.40;;;;;;5069306;28;20056;-74
2021/04/05 11:59:13;;;;;;;5.90;1.23;;;7.30;60.10;;;;;;5070502;28;20386;-74
2021/04/05 12:01:51;;;;;;;5.32;1.85;;;7.20;61.10;;;;;;5070751;28;20051;-74
2021/04/05 12:04:39;;;;;;;6.60;1.52;;;7.20;62.80;;;;;;5071341;28;20121;-74
2021/04/05 12:07:14;;;;;;;7.20;1.15;;;7.20;63.60;;;;;;5068237;28;20044;-74
2021/04/05 12:10:04;;;;;;;8.82;1.30;;;7.00;63.00;;;;;;5069156;28;20097;-74
2021/04/05 12:12:44;;;;;;;4.10;1.15;;;6.60;55.10;;;;;;5065310;28;20040;-74
2021/04/05 12:15:16;;;;;;;6.35;1.60;;;6.60;58.20;;;;;;5067428;28;20049;-74
2021/04/05 12:17:50;;;;;;;5.05;1.50;;;6.90;55.90;;;;;;5068350;28;20044;-74
2021/04/05 12:20:20;;;;;;;5.07;1.55;;;6.70;55.70;;;;;;5066574;28;20037;-74
2021/04/05 12:22:52;;;;;;;5.57;1.13;;;6.60;61.60;;;;;;5069316;28;20037;-73
2021/04/05 12:25:27;;;;;;;3.28;0.82;;;6.50;58.20;;;;;;5069737;28;20119;-74
2021/04/05 12:27:59;;;;;;;2.22;0.80;;;6.60;68.70;;;;;;5068747;28;20037;-73
2021/04/05 12:30:27;;;;;;;4.88;0.90;;;6.00;61.80;;;;;;5069337;28;20041;-74
2021/04/05 12:32:55;;;;;;;1.73;0.85;;;6.00;67.00;;;;;;5067687;28;20454;-74
2021/04/05 12:35:22;;;;;;;5.45;1.27;;;5.70;66.90;;;;;;5068187;28;20578;-74
2021/04/05 12:38:00;;;;;;;1.25;0.40;;;5.10;59.30;;;;;;5067634;28;20114;-74
2021/04/05 12:40:32;;;;;;;5.47;0.85;;;5.30;68.30;;;;;;5068947;28;20063;-74
2021/04/05 12:43:24;;;;;;;;;;;5.60;66.60;;;;;;5071771;28;20045;-74
2021/04/05 12:45:55;;;;;;;3.00;0.93;;;5.90;64.70;;;;;;5069850;28;19920;-74
2021/04/05 12:48:32;;;;;;;2.95;0.77;;;6.50;64.90;;;;;;5073870;28;20801;-74
2021/04/05 12:51:01;;;;;;;3.20;0.70;;;6.40;65.70;;;;;;5072625;28;20047;-74
2021/04/05 12:53:29;;;;;;;4.45;1.30;;;6.20;64.00;;;;;;5072840;28;20072;-75
2021/04/05 12:55:57;;;;;;;5.18;0.73;;;5.80;60.10;;;;;;5073420;28;20394;-74
2021/04/05 12:58:34;;;;;;;1.63;0.68;;;5.90;64.30;;;;;;5073395;28;20040;-74
2021/04/05 13:01:01;;;;;;;3.05;1.17;;;5.80;68.00;;;;;;5072197;28;20173;-74
2021/04/05 13:03:29;;;;;;;4.95;1.08;;;5.60;65.30;;;;;;5072349;28;20074;-74
2021/04/05 13:05:57;;;;;;;3.47;1.35;;;5.40;59.10;;;;;;5065728;28;20058;-74
2021/04/05 13:08:29;;;;;;;3.92;0.85;;;5.30;59.60;;;;;;5072052;28;20048;-74
2021/04/05 13:11:45;;;;;;;6.15;0.93;;;5.80;62.80;;;;;;5070132;28;20035;-74
2021/04/05 13:14:17;;;;;;;5.57;1.15;;;5.80;57.60;;;;;;5032259;28;20081;-73
2021/04/05 13:17:10;;;;;;;5.20;1.10;;;5.70;55.00;;;;;;5067361;28;20040;-74
2021/04/05 13:20:00;;;;;;;3.75;1.20;;;5.70;55.70;;;;;;5073874;28;20094;-73
2021/04/05 13:22:30;;;;;;;5.65;1.27;;;5.50;56.20;;;;;;5073480;28;20040;-74
2021/04/05 13:25:09;;;;;;;5.55;1.20;;;5.70;57.70;;;;;;5068567;28;20056;-74
2021/04/05 13:27:36;;;;;;;6.57;1.58;;;6.30;61.50;;;;;;5067511;28;20075;-74
2021/04/05 13:30:06;;;;;;;2.10;0.43;;;6.20;53.40;;;;;;5071100;28;20040;-73